createdAt,value
2023-05-24T18:03:04.399Z,14.98
2023-05-24T18:05:31.270Z,19.25
2023-05-24T18:08:01.043Z,23.90
2023-05-24T18:10:27.632Z,18.95
2023-05-24T18:12:54.277Z,17.20
2023-05-24T18:15:21.326Z,14.68
2023-05-24T18:17:47.936Z,20.55
2023-05-24T18:20:15.322Z,16.42
2023-05-24T18:22:42.035Z,19.02
2023-05-24T18:25:08.813Z,20.08
2023-05-24T18:27:35.584Z,15.60
2023-05-24T18:30:02.286Z,15.30
2023-05-24T18:32:28.949Z,17.15
2023-05-24T18:34:57.005Z,17.00
2023-05-24T18:37:23.542Z,23.05
2023-05-24T18:39:50.097Z,25.73
2023-05-24T18:42:16.763Z,19.08
2023-05-24T18:44:43.297Z,26.67
2023-05-24T18:47:10.329Z,27.48
2023-05-24T18:49:37.137Z,18.75
2023-05-24T18:52:06.593Z,21.50
2023-05-24T18:54:33.433Z,18.70
2023-05-24T18:57:03.106Z,16.85
2023-05-24T18:59:31.608Z,14.43
2023-05-24T19:01:58.405Z,21.75
2023-05-24T19:04:26.577Z,19.10
2023-05-24T19:06:53.206Z,17.80
2023-05-24T19:09:19.802Z,16.65
2023-05-24T19:11:47.728Z,19.23
2023-05-24T19:14:14.395Z,19.20
2023-05-24T19:16:41.045Z,21.27
2023-05-24T19:19:07.728Z,23.92
2023-05-24T19:21:34.222Z,20.52
2023-05-24T19:24:00.834Z,22.63
2023-05-24T19:26:27.374Z,25.23
2023-05-24T19:28:54.253Z,23.67
2023-05-24T19:31:23.561Z,17.05
2023-05-24T19:33:59.905Z,19.40
2023-05-24T19:36:28.499Z,22.90
2023-05-24T19:38:55.077Z,21.70
2023-05-24T19:41:21.868Z,24.33
2023-05-24T19:43:48.596Z,25.50
2023-05-24T19:46:15.313Z,22.17
2023-05-24T19:48:42.408Z,19.38
2023-05-24T19:51:09.113Z,19.02
2023-05-24T19:53:35.765Z,20.15
2023-05-24T19:56:02.608Z,22.10
2023-05-24T19:58:30.393Z,22.92
2023-05-24T20:00:56.969Z,20.77
2023-05-24T20:03:24.706Z,19.63
2023-05-24T20:05:51.564Z,29.20
2023-05-24T20:08:20.104Z,23.90
2023-05-24T20:10:48.864Z,18.35
2023-05-24T20:13:15.378Z,19.92
2023-05-24T20:15:42.227Z,18.90
2023-05-24T20:18:09.045Z,19.65
2023-05-24T20:20:35.955Z,18.27
2023-05-24T20:23:02.834Z,17.40
2023-05-24T20:25:29.695Z,19.55
2023-05-24T20:27:56.576Z,19.27
2023-05-24T20:30:24.037Z,17.58
2023-05-24T20:32:50.754Z,18.95
2023-05-24T20:35:17.523Z,28.00
2023-05-24T20:37:44.132Z,26.25
2023-05-24T20:40:12.200Z,19.48
2023-05-24T20:42:39.015Z,21.70
2023-05-24T20:45:06.470Z,18.90
2023-05-24T20:47:33.254Z,20.02
2023-05-24T20:50:00.097Z,16.15
2023-05-24T20:52:26.904Z,15.77
2023-05-24T20:54:53.675Z,16.48
2023-05-24T20:57:20.696Z,25.45
2023-05-24T20:59:47.369Z,19.27
2023-05-24T21:02:14.126Z,20.27
2023-05-24T21:04:40.759Z,28.27
2023-05-24T21:07:08.112Z,18.63
2023-05-24T21:09:36.468Z,18.95
2023-05-24T21:12:03.398Z,21.45
2023-05-24T21:14:30.487Z,18.23
2023-05-24T21:16:57.135Z,19.48
2023-05-24T21:19:23.820Z,19.77
2023-05-24T21:21:50.781Z,15.00
2023-05-24T21:24:17.591Z,19.80
2023-05-24T21:26:44.414Z,21.38
2023-05-24T21:29:13.216Z,22.67
2023-05-24T21:31:40.870Z,24.40
2023-05-24T21:34:07.612Z,30.60
2023-05-24T21:36:34.467Z,23.73
2023-05-24T21:39:03.931Z,24.48
2023-05-24T21:41:30.648Z,24.92
2023-05-24T21:43:57.298Z,30.08
2023-05-24T21:46:24.041Z,24.50
2023-05-24T21:48:50.736Z,29.83
2023-05-24T21:51:17.476Z,27.60
2023-05-24T21:53:44.172Z,29.17
2023-05-24T21:56:10.993Z,32.92
2023-05-24T21:58:38.103Z,37.72
2023-05-24T22:01:04.959Z,28.80
2023-05-24T22:03:31.711Z,25.13
2023-05-24T22:05:58.439Z,27.40
2023-05-24T22:08:25.182Z,31.15
2023-05-24T22:10:51.993Z,26.85
2023-05-24T22:13:18.612Z,24.45
2023-05-24T22:15:45.623Z,35.35
2023-05-24T22:18:12.861Z,30.15
2023-05-24T22:20:40.921Z,30.92
2023-05-24T22:23:08.051Z,27.35
2023-05-24T22:25:36.001Z,25.08
2023-05-24T22:28:02.530Z,23.77
2023-05-24T22:30:30.147Z,29.50
2023-05-24T22:32:56.769Z,33.78
2023-05-24T22:35:23.424Z,30.65
2023-05-24T22:37:50.082Z,33.25
2023-05-24T22:40:17.468Z,24.80
2023-05-24T22:42:44.236Z,25.40
2023-05-24T22:45:10.996Z,25.35
2023-05-24T22:47:40.010Z,25.80
2023-05-24T22:50:07.534Z,20.77
2023-05-24T22:52:34.134Z,26.60
2023-05-24T22:55:01.282Z,27.05
2023-05-24T22:57:28.047Z,26.02
2023-05-24T22:59:54.702Z,34.22
2023-05-24T23:02:21.518Z,33.45
2023-05-24T23:04:48.434Z,25.63
2023-05-24T23:07:15.539Z,23.65
2023-05-24T23:09:42.940Z,32.88
2023-05-24T23:12:09.580Z,27.48
2023-05-24T23:14:41.519Z,33.35
2023-05-24T23:17:10.478Z,23.50
2023-05-24T23:19:43.046Z,28.10
2023-05-24T23:22:12.715Z,23.67
2023-05-24T23:24:39.725Z,26.90
2023-05-24T23:27:06.644Z,24.75
2023-05-24T23:29:33.557Z,23.60
2023-05-24T23:32:00.538Z,23.77
2023-05-24T23:34:27.260Z,20.02
2023-05-24T23:36:53.862Z,26.23
2023-05-24T23:39:20.481Z,20.25
2023-05-24T23:41:46.969Z,20.23
2023-05-24T23:44:13.511Z,18.13
2023-05-24T23:46:40.704Z,23.05
2023-05-24T23:49:07.361Z,24.33
2023-05-24T23:51:34.015Z,20.83
2023-05-24T23:54:00.965Z,19.02
2023-05-24T23:56:27.554Z,28.80
2023-05-24T23:58:54.126Z,20.52
